createdAt,value
2023-02-18T00:00:42.311Z,3.92
2023-02-18T00:05:45.129Z,2.85
2023-02-18T00:10:49.843Z,2.78
2023-02-18T00:15:52.704Z,1.88
2023-02-18T00:20:55.411Z,1.88
2023-02-18T00:26:03.471Z,1.23
2023-02-18T00:31:09.966Z,1.33
2023-02-18T00:36:14.719Z,1.20
2023-02-18T00:41:19.161Z,1.20
2023-02-18T00:46:22.942Z,1.15
2023-02-18T00:51:26.339Z,1.30
2023-02-18T00:56:30.460Z,0.93
2023-02-18T01:01:33.304Z,1.00
2023-02-18T01:06:36.138Z,0.80
2023-02-18T01:11:40.503Z,0.80
2023-02-18T01:16:43.423Z,0.60
2023-02-18T01:21:46.176Z,1.00
2023-02-18T01:26:52.235Z,0.90
2023-02-18T01:31:55.090Z,0.77
2023-02-18T01:36:57.866Z,0.73
2023-02-18T01:42:02.049Z,0.90
2023-02-18T01:47:04.853Z,1.10
2023-02-18T01:52:10.288Z,0.73
2023-02-18T01:57:17.041Z,0.70
2023-02-18T02:02:23.245Z,1.20
2023-02-18T02:07:27.445Z,0.82
2023-02-18T02:12:48.700Z,0.65
2023-02-18T02:18:03.322Z,1.10
2023-02-18T02:23:48.719Z,0.95
2023-02-18T02:29:06.487Z,0.63
2023-02-18T02:34:38.727Z,1.10
2023-02-18T02:39:59.079Z,0.93
2023-02-18T02:45:06.071Z,1.05
2023-02-18T02:50:12.138Z,1.17
2023-02-18T02:55:14.991Z,1.25
2023-02-18T03:00:24.331Z,0.80
2023-02-18T03:05:36.072Z,1.50
2023-02-18T03:10:49.230Z,1.13
2023-02-18T03:15:57.056Z,1.10
2023-02-18T03:21:05.660Z,1.48
2023-02-18T03:26:09.898Z,1.13
2023-02-18T03:31:15.547Z,1.45
2023-02-18T03:36:21.532Z,1.30
2023-02-18T03:41:24.398Z,1.45
2023-02-18T03:46:27.910Z,1.60
2023-02-18T03:51:32.215Z,1.38
2023-02-18T03:56:35.320Z,1.20
2023-02-18T04:01:38.106Z,1.35
2023-02-18T04:06:42.230Z,1.30
2023-02-18T04:11:44.944Z,1.75
2023-02-18T04:16:47.676Z,1.15
2023-02-18T04:21:51.960Z,1.17
2023-02-18T04:26:54.701Z,1.30
2023-02-18T04:31:57.473Z,1.42
2023-02-18T04:37:01.579Z,1.23
2023-02-18T04:42:08.833Z,1.67
2023-02-18T04:47:11.684Z,1.40
2023-02-18T04:52:15.812Z,2.22
2023-02-18T04:57:18.511Z,2.05
2023-02-18T05:02:21.224Z,2.25
2023-02-18T05:07:25.304Z,2.70
2023-02-18T05:12:28.126Z,2.90
2023-02-18T05:17:30.820Z,3.17
2023-02-18T05:22:34.946Z,4.35
2023-02-18T05:27:37.638Z,3.92
2023-02-18T05:32:40.357Z,4.45
2023-02-18T05:37:44.474Z,5.13
2023-02-18T05:42:47.282Z,4.60
2023-02-18T05:47:50.022Z,4.90
2023-02-18T05:52:54.108Z,4.43
2023-02-18T05:57:56.855Z,4.32
2023-02-18T06:02:59.855Z,4.57
2023-02-18T06:08:04.178Z,4.90
2023-02-18T06:13:07.036Z,4.45
2023-02-18T06:18:09.943Z,4.90
2023-02-18T06:23:14.029Z,4.70
2023-02-18T06:28:16.758Z,4.05
2023-02-18T06:33:19.467Z,4.82
2023-02-18T06:38:23.580Z,5.07
2023-02-18T06:43:26.388Z,4.60
2023-02-18T06:48:29.297Z,4.78
2023-02-18T06:53:33.373Z,4.53
2023-02-18T06:58:36.072Z,4.50
2023-02-18T07:03:38.848Z,5.32
2023-02-18T07:08:43.022Z,4.55
2023-02-18T07:13:45.855Z,4.50
2023-02-18T07:18:48.655Z,4.35
2023-02-18T07:23:52.865Z,4.70
2023-02-18T07:28:55.555Z,4.00
2023-02-18T07:33:58.378Z,3.78
2023-02-18T07:39:02.461Z,4.45
2023-02-18T07:44:05.837Z,4.35
2023-02-18T07:49:08.606Z,4.00
2023-02-18T07:54:12.721Z,3.33
2023-02-18T07:59:15.492Z,3.17
2023-02-18T08:04:18.345Z,3.65
2023-02-18T08:09:22.525Z,3.35
2023-02-18T08:14:25.338Z,3.10
2023-02-18T08:19:28.123Z,3.08
2023-02-18T08:24:32.302Z,2.90
2023-02-18T08:29:35.050Z,2.72
2023-02-18T08:34:37.736Z,2.38
2023-02-18T08:39:41.825Z,1.83
2023-02-18T08:44:44.729Z,1.70
2023-02-18T08:49:47.421Z,1.30
2023-02-18T08:54:51.727Z,1.25
2023-02-18T08:59:54.476Z,0.90
2023-02-18T09:04:57.182Z,0.95
2023-02-18T09:10:01.270Z,0.77
2023-02-18T09:15:04.790Z,0.70
2023-02-18T09:20:09.080Z,0.50
2023-02-18T09:25:13.619Z,0.60
2023-02-18T09:30:16.741Z,0.43
2023-02-18T09:35:19.914Z,0.40
2023-02-18T09:40:27.020Z,0.40
2023-02-18T09:45:30.279Z,0.50
2023-02-18T09:50:34.793Z,0.32
2023-02-18T09:55:41.112Z,0.50
2023-02-18T10:00:48.475Z,0.40
2023-02-18T10:05:57.798Z,0.40
2023-02-18T10:11:02.166Z,0.25
2023-02-18T10:16:05.803Z,0.20
2023-02-18T10:21:11.332Z,0.40
2023-02-18T10:26:17.464Z,0.20
2023-02-18T10:31:24.088Z,0.22
2023-02-18T10:36:28.002Z,0.20
2023-02-18T10:41:37.411Z,0.20
2023-02-18T10:46:45.934Z,0.25
2023-02-18T10:51:52.150Z,0.20
2023-02-18T10:57:00.495Z,0.10
2023-02-18T11:02:06.333Z,0.10
2023-02-18T11:07:14.396Z,0.10
2023-02-18T11:12:21.905Z,0.20
2023-02-18T11:17:28.873Z,0.10
2023-02-18T11:22:33.310Z,0.20
2023-02-18T11:27:42.848Z,0.20
2023-02-18T11:32:45.780Z,0.20
2023-02-18T11:37:48.986Z,0.20
2023-02-18T11:42:53.096Z,0.20
2023-02-18T11:48:00.886Z,0.20
2023-02-18T11:53:28.335Z,0.17
2023-02-18T11:58:39.924Z,0.20
2023-02-18T12:03:45.133Z,0.10
2023-02-18T12:08:50.493Z,0.20
2023-02-18T12:13:57.097Z,0.30
2023-02-18T12:19:19.995Z,0.20
2023-02-18T12:24:35.543Z,0.30
2023-02-18T12:30:01.045Z,0.20
2023-02-18T12:35:31.046Z,0.28
2023-02-18T12:41:07.514Z,0.20
2023-02-18T12:46:31.593Z,0.10
2023-02-18T12:51:41.712Z,0.22
2023-02-18T12:56:53.816Z,0.20
2023-02-18T13:02:05.864Z,0.30
2023-02-18T13:07:23.728Z,0.28
2023-02-18T13:12:31.679Z,0.30
2023-02-18T13:17:38.300Z,0.30
2023-02-18T13:22:41.255Z,0.30
2023-02-18T13:27:47.825Z,0.40
2023-02-18T13:33:01.856Z,0.20
2023-02-18T13:38:18.144Z,0.30
2023-02-18T13:43:29.594Z,0.50
2023-02-18T13:48:37.247Z,0.20
2023-02-18T13:53:42.939Z,0.30
2023-02-18T13:58:49.651Z,0.30
2023-02-18T14:03:59.732Z,0.40
2023-02-18T14:09:35.976Z,0.30
2023-02-18T14:14:40.731Z,0.38
2023-02-18T14:19:43.558Z,0.40
2023-02-18T14:24:50.479Z,0.40
2023-02-18T14:29:55.204Z,0.30
2023-02-18T14:35:09.962Z,0.43
2023-02-18T14:40:26.653Z,0.30
2023-02-18T14:45:36.692Z,0.50
2023-02-18T14:50:42.912Z,0.30
2023-02-18T14:55:47.664Z,0.43
2023-02-18T15:00:52.004Z,0.50
2023-02-18T15:05:54.763Z,0.30
2023-02-18T15:10:59.473Z,0.40
2023-02-18T15:16:06.282Z,0.40
2023-02-18T15:21:11.427Z,0.43
2023-02-18T15:26:15.104Z,0.32
2023-02-18T15:31:19.592Z,0.40
2023-02-18T15:36:22.842Z,0.30
2023-02-18T15:41:25.636Z,0.40
2023-02-18T15:46:30.178Z,0.38
2023-02-18T15:51:33.209Z,0.40
2023-02-18T15:56:38.879Z,0.40
2023-02-18T16:01:43.671Z,0.40
2023-02-18T16:06:47.942Z,0.60
2023-02-18T16:11:52.934Z,0.60
2023-02-18T16:17:09.581Z,0.40
2023-02-18T16:22:25.207Z,0.50
2023-02-18T16:27:33.604Z,0.40
2023-02-18T16:32:37.691Z,0.60
2023-02-18T16:37:40.627Z,0.43
2023-02-18T16:42:43.417Z,0.40
2023-02-18T16:47:49.685Z,0.60
2023-02-18T16:52:52.453Z,0.50
2023-02-18T16:57:55.503Z,0.50
2023-02-18T17:03:00.711Z,0.55
2023-02-18T17:08:16.311Z,0.50
2023-02-18T17:13:20.655Z,0.50
2023-02-18T17:18:25.212Z,0.50
2023-02-18T17:23:27.919Z,0.50
2023-02-18T17:28:30.782Z,0.40
2023-02-18T17:33:35.893Z,0.55
2023-02-18T17:38:38.764Z,0.50
2023-02-18T17:43:41.676Z,0.70
2023-02-18T17:48:47.358Z,0.40
2023-02-18T17:53:50.134Z,0.60
2023-02-18T17:58:53.022Z,0.80
2023-02-18T18:03:57.147Z,0.80
2023-02-18T18:09:00.184Z,0.52
2023-02-18T18:14:03.151Z,0.47
2023-02-18T18:19:07.304Z,0.70
2023-02-18T18:24:12.883Z,0.60
2023-02-18T18:29:15.679Z,0.70
2023-02-18T18:34:21.069Z,0.68
2023-02-18T18:39:23.801Z,0.90
2023-02-18T18:44:26.712Z,0.80
2023-02-18T18:49:30.846Z,0.70
2023-02-18T18:54:33.773Z,0.60
2023-02-18T18:59:36.621Z,0.70
2023-02-18T19:04:40.707Z,0.75
2023-02-18T19:09:43.473Z,0.75
2023-02-18T19:14:46.265Z,0.98
2023-02-18T19:19:50.625Z,0.80
2023-02-18T19:24:53.405Z,0.80
2023-02-18T19:29:56.246Z,0.77
2023-02-18T19:35:00.321Z,1.10
2023-02-18T19:40:03.657Z,1.00
2023-02-18T19:45:06.709Z,0.80
2023-02-18T19:50:13.907Z,1.00
2023-02-18T19:55:16.703Z,0.90
2023-02-18T20:00:21.095Z,0.60
2023-02-18T20:05:25.328Z,0.90
2023-02-18T20:10:29.198Z,0.90
2023-02-18T20:15:32.195Z,0.60
2023-02-18T20:20:36.345Z,0.70
2023-02-18T20:25:39.802Z,1.00
2023-02-18T20:30:42.609Z,1.27
2023-02-18T20:35:56.598Z,1.13
2023-02-18T20:41:04.597Z,1.35
2023-02-18T20:46:09.135Z,1.08
2023-02-18T20:51:16.237Z,1.13
2023-02-18T20:56:19.876Z,1.48
2023-02-18T21:01:23.590Z,1.23
2023-02-18T21:06:28.467Z,1.65
2023-02-18T21:11:31.248Z,1.48
2023-02-18T21:16:38.495Z,1.38
2023-02-18T21:21:43.359Z,1.20
2023-02-18T21:26:46.093Z,1.27
2023-02-18T21:31:48.910Z,1.33
2023-02-18T21:36:53.018Z,1.27
2023-02-18T21:41:57.120Z,1.70
2023-02-18T21:46:59.868Z,1.35
2023-02-18T21:52:08.603Z,1.40
2023-02-18T21:57:13.018Z,1.90
2023-02-18T22:02:17.589Z,1.73
2023-02-18T22:07:23.423Z,2.25
2023-02-18T22:12:27.101Z,1.65
2023-02-18T22:17:32.014Z,1.70
2023-02-18T22:22:36.426Z,1.98
2023-02-18T22:27:39.396Z,1.88
2023-02-18T22:32:42.154Z,2.38
2023-02-18T22:37:46.332Z,1.60
2023-02-18T22:42:49.218Z,1.92
2023-02-18T22:47:52.000Z,1.75
2023-02-18T22:52:56.304Z,1.95
2023-02-18T22:57:59.040Z,2.20
2023-02-18T23:03:01.726Z,1.88
2023-02-18T23:08:06.453Z,1.85
2023-02-18T23:13:09.278Z,1.65
2023-02-18T23:18:12.016Z,1.50
2023-02-18T23:23:16.169Z,1.58
2023-02-18T23:28:18.937Z,1.42
2023-02-18T23:33:21.899Z,2.00
2023-02-18T23:38:25.990Z,1.98
2023-02-18T23:43:31.309Z,2.20
2023-02-18T23:48:37.348Z,2.08
2023-02-18T23:53:42.755Z,2.00
2023-02-18T23:58:47.335Z,2.60
